Time;durP1;ratioP1;P1;durP2;ratioP2;P2;SDS_P1;SDS_P2;PMS_P1;PMS_P2;Temp;Humidity;BMP_temperature;BMP_pressure;BME280_temperature;BME280_humidity;BME280_pressure;Samples;Min_cycle;Max_cycle;Signal;HPM_P1;HPM_P2
2023/04/17 00:01:02;;;;;;;41.88;32.15;;;8.70;99.90;;;;;;7378806;19;20015;-66
2023/04/17 00:03:30;;;;;;;45.22;33.10;;;8.80;99.90;;;;;;7374331;19;20788;-66
2023/04/17 00:05:57;;;;;;;44.58;31.38;;;8.80;99.90;;;;;;7376250;19;20019;-64
2023/04/17 00:08:23;;;;;;;44.22;32.28;;;8.70;99.90;;;;;;7374895;19;20589;-65
2023/04/17 00:10:49;;;;;;;43.70;32.25;;;8.70;99.90;;;;;;7374020;19;20544;-64
2023/04/17 00:13:15;;;;;;;44.47;32.10;;;8.70;99.90;;;;;;7371419;19;20534;-63
2023/04/17 00:15:42;;;;;;;44.25;31.75;;;8.70;99.90;;;;;;7378519;19;20588;-65
2023/04/17 00:18:09;;;;;;;43.05;33.47;;;8.70;99.90;;;;;;7378672;19;20078;-66
2023/04/17 00:20:35;;;;;;;46.00;32.83;;;8.70;99.90;;;;;;7373312;19;20014;-66
2023/04/17 00:23:01;;;;;;;46.25;33.30;;;8.80;99.90;;;;;;7369992;19;20463;-66
2023/04/17 00:25:28;;;;;;;46.60;33.65;;;8.80;99.90;;;;;;7370403;19;20014;-66
2023/04/17 00:27:54;;;;;;;50.22;33.25;;;8.80;99.90;;;;;;7374622;19;20384;-66
2023/04/17 00:30:20;;;;;;;43.80;32.13;;;8.70;99.90;;;;;;7371550;19;20097;-65
2023/04/17 00:32:47;;;;;;;43.78;32.28;;;8.80;99.90;;;;;;7377706;19;20024;-65
2023/04/17 00:35:13;;;;;;;47.88;33.75;;;8.70;99.90;;;;;;7366454;19;20105;-65
2023/04/17 00:37:39;;;;;;;44.80;32.47;;;8.70;99.90;;;;;;7371570;19;20032;-65
2023/04/17 00:40:06;;;;;;;42.95;32.30;;;8.70;99.90;;;;;;7367037;19;20022;-63
2023/04/17 00:42:33;;;;;;;47.55;33.88;;;8.70;99.90;;;;;;7370913;19;20601;-64
2023/04/17 00:44:59;;;;;;;47.95;34.95;;;8.80;99.90;;;;;;7369456;19;20022;-64
2023/04/17 00:47:26;;;;;;;49.08;34.28;;;8.70;99.90;;;;;;7370863;19;20010;-63
2023/04/17 00:49:52;;;;;;;43.88;33.70;;;8.80;99.90;;;;;;7371099;19;20023;-64
2023/04/17 00:52:31;;;;;;;45.40;32.75;;;8.80;99.90;;;;;;7369330;19;20014;-64
2023/04/17 00:54:59;;;;;;;51.60;35.80;;;8.70;99.90;;;;;;7366151;19;20075;-64
2023/04/17 00:57:26;;;;;;;50.90;34.67;;;8.70;99.90;;;;;;7364316;19;20029;-64
2023/04/17 00:59:53;;;;;;;50.30;33.70;;;8.70;99.90;;;;;;7373115;19;20900;-63
2023/04/17 01:02:19;;;;;;;46.80;35.45;;;8.70;99.90;;;;;;7366201;19;20023;-63
2023/04/17 01:04:46;;;;;;;51.60;36.08;;;8.70;99.90;;;;;;7360759;19;20018;-64
2023/04/17 01:07:12;;;;;;;51.33;36.10;;;8.70;99.90;;;;;;7358987;19;20700;-63
2023/04/17 01:09:39;;;;;;;53.83;38.28;;;8.60;99.90;;;;;;7372823;19;20493;-66
2023/04/17 01:12:19;;;;;;;52.65;36.63;;;8.60;99.90;;;;;;7372981;19;20093;-66
2023/04/17 01:14:46;;;;;;;53.60;36.08;;;8.70;99.90;;;;;;7372981;19;20026;-64
2023/04/17 01:17:13;;;;;;;54.25;36.13;;;8.70;99.90;;;;;;7372143;19;20014;-65
2023/04/17 01:19:40;;;;;;;56.67;38.10;;;8.60;99.90;;;;;;7371099;19;20019;-64
2023/04/17 01:22:09;;;;;;;54.72;37.97;;;8.60;99.90;;;;;;7369627;19;20596;-66
2023/04/17 01:24:36;;;;;;;60.28;38.83;;;8.60;99.90;;;;;;7369701;19;20038;-63
2023/04/17 01:27:05;;;;;;;55.20;37.10;;;8.60;99.90;;;;;;7373822;19;20590;-66
2023/04/17 01:29:31;;;;;;;53.58;37.22;;;8.60;99.90;;;;;;7370499;19;20027;-66
2023/04/17 01:31:58;;;;;;;58.78;39.92;;;8.60;99.90;;;;;;7374100;19;20034;-66
2023/04/17 01:34:27;;;;;;;59.83;38.88;;;8.60;99.90;;;;;;7369920;19;20855;-66
2023/04/17 01:36:53;;;;;;;64.88;38.42;;;8.60;99.90;;;;;;7370253;19;20039;-66
2023/04/17 01:39:22;;;;;;;60.95;39.42;;;8.60;99.90;;;;;;7366282;19;20791;-65
2023/04/17 01:41:51;;;;;;;55.55;37.72;;;8.60;99.90;;;;;;7363054;19;20026;-65
2023/04/17 01:44:19;;;;;;;59.00;38.88;;;8.60;99.90;;;;;;7353306;19;20777;-64
2023/04/17 01:46:47;;;;;;;60.70;39.33;;;8.70;99.90;;;;;;7371760;19;20019;-64
2023/04/17 01:49:15;;;;;;;63.40;39.67;;;8.60;99.90;;;;;;7367108;19;20026;-64
2023/04/17 01:51:41;;;;;;;64.35;40.88;;;8.60;99.90;;;;;;7370035;19;20015;-66
2023/04/17 01:54:08;;;;;;;67.00;40.42;;;8.70;99.90;;;;;;7366015;19;20026;-66
2023/04/17 01:56:34;;;;;;;63.08;41.40;;;8.70;99.90;;;;;;7368983;19;20595;-65
2023/04/17 01:59:03;;;;;;;61.92;39.20;;;8.70;99.90;;;;;;7367579;19;20064;-65
2023/04/17 02:01:30;;;;;;;67.75;41.17;;;8.70;99.90;;;;;;7365079;19;20061;-65
2023/04/17 02:03:56;;;;;;;69.47;41.85;;;8.70;99.90;;;;;;7367965;19;20014;-66
2023/04/17 02:06:22;;;;;;;74.05;45.13;;;8.70;99.90;;;;;;7368383;19;20033;-65
2023/04/17 02:08:49;;;;;;;69.45;43.13;;;8.70;99.90;;;;;;7366503;19;20782;-65
2023/04/17 02:11:15;;;;;;;69.93;43.00;;;8.70;99.90;;;;;;7370394;19;20018;-65
2023/04/17 02:13:41;;;;;;;75.95;46.58;;;8.70;99.90;;;;;;7363626;19;20026;-65
2023/04/17 02:16:08;;;;;;;70.68;42.33;;;8.60;99.90;;;;;;7355367;19;20574;-66
2023/04/17 02:18:39;;;;;;;70.93;43.85;;;8.60;99.90;;;;;;7369803;19;20045;-66
2023/04/17 02:21:06;;;;;;;72.40;44.67;;;8.70;99.90;;;;;;7368756;19;20025;-66
2023/04/17 02:23:35;;;;;;;70.22;42.72;;;8.60;99.90;;;;;;7365058;19;20046;-66
2023/04/17 02:26:03;;;;;;;70.10;44.33;;;8.60;99.90;;;;;;7368032;19;20102;-66
2023/04/17 02:28:29;;;;;;;70.13;42.05;;;8.70;99.90;;;;;;7367452;19;20550;-64
2023/04/17 02:30:56;;;;;;;68.97;43.30;;;8.60;99.90;;;;;;7367058;19;20026;-64
2023/04/17 02:33:22;;;;;;;67.43;41.20;;;8.60;99.90;;;;;;7367829;19;20062;-64
2023/04/17 02:36:12;;;;;;;71.25;44.45;;;8.60;99.90;;;;;;7367452;19;20031;-64
2023/04/17 02:38:41;;;;;;;72.97;44.28;;;8.60;99.90;;;;;;7365589;19;20018;-64
2023/04/17 02:41:07;;;;;;;72.30;44.75;;;8.60;99.90;;;;;;7367688;19;20034;-63
2023/04/17 02:43:34;;;;;;;73.07;45.42;;;8.60;99.90;;;;;;7371343;19;20360;-63
2023/04/17 02:46:01;;;;;;;67.93;43.38;;;8.60;99.90;;;;;;7366601;19;20018;-64
2023/04/17 02:48:27;;;;;;;73.82;45.35;;;8.60;99.90;;;;;;7368006;19;20089;-65
2023/04/17 02:50:54;;;;;;;74.28;42.55;;;8.60;99.90;;;;;;7370636;19;20478;-66
2023/04/17 02:53:20;;;;;;;71.75;45.22;;;8.60;99.90;;;;;;7369130;19;20073;-66
2023/04/17 02:55:48;;;;;;;67.90;44.00;;;8.60;99.90;;;;;;7369758;19;20103;-64
2023/04/17 02:58:17;;;;;;;72.72;43.83;;;8.60;99.90;;;;;;7364629;19;20014;-63
2023/04/17 03:00:43;;;;;;;74.80;46.45;;;8.60;99.90;;;;;;7362797;19;20770;-63
2023/04/17 03:03:14;;;;;;;72.47;45.22;;;8.60;99.90;;;;;;7366611;19;20829;-63
2023/04/17 03:05:40;;;;;;;73.15;45.83;;;8.70;99.90;;;;;;7364975;19;20015;-64
2023/04/17 03:08:06;;;;;;;68.32;44.20;;;8.70;99.90;;;;;;7363309;19;20021;-64
2023/04/17 03:10:41;;;;;;;71.22;45.47;;;8.70;99.90;;;;;;7362893;19;20061;-64
2023/04/17 03:13:07;;;;;;;64.53;43.42;;;8.70;99.90;;;;;;7362881;19;20018;-64
2023/04/17 03:15:35;;;;;;;68.95;44.05;;;8.60;99.90;;;;;;7371507;19;20034;-64
2023/04/17 03:18:01;;;;;;;71.78;45.55;;;8.70;99.90;;;;;;7374994;19;20025;-63
2023/04/17 03:20:27;;;;;;;74.40;46.42;;;8.70;99.90;;;;;;7371420;19;20445;-63
2023/04/17 03:22:54;;;;;;;77.38;46.67;;;8.70;99.90;;;;;;7373130;19;20058;-64
2023/04/17 03:25:21;;;;;;;71.95;45.58;;;8.70;99.90;;;;;;7372602;19;20058;-64
2023/04/17 03:27:52;;;;;;;81.85;46.65;;;8.70;99.90;;;;;;7375520;19;20034;-63
2023/04/17 03:30:20;;;;;;;77.85;47.13;;;8.70;99.90;;;;;;7370970;19;20038;-64
2023/04/17 03:32:49;;;;;;;75.28;46.13;;;8.70;99.90;;;;;;7372555;19;20070;-62
2023/04/17 03:35:15;;;;;;;66.85;43.28;;;8.60;99.90;;;;;;7373848;19;20026;-64
2023/04/17 03:37:43;;;;;;;75.30;46.83;;;8.60;99.90;;;;;;7374770;19;20018;-65
2023/04/17 03:40:11;;;;;;;74.55;44.13;;;8.60;99.90;;;;;;7371091;19;20022;-64
2023/04/17 03:42:37;;;;;;;74.38;45.83;;;8.60;99.90;;;;;;7365805;19;20022;-66
2023/04/17 03:45:03;;;;;;;73.60;44.75;;;8.60;99.90;;;;;;7363956;19;20542;-66
2023/04/17 03:47:32;;;;;;;80.53;46.10;;;8.60;99.90;;;;;;7370326;19;20025;-66
2023/04/17 03:49:59;;;;;;;79.07;47.58;;;8.60;99.90;;;;;;7375791;19;20015;-67
2023/04/17 03:52:26;;;;;;;83.03;46.28;;;8.60;99.90;;;;;;7368605;19;20011;-64
2023/04/17 03:54:56;;;;;;;83.57;45.80;;;8.60;99.90;;;;;;7372811;19;20020;-64
2023/04/17 03:57:25;;;;;;;88.07;46.65;;;8.60;99.90;;;;;;7369112;19;20458;-64
2023/04/17 03:59:52;;;;;;;85.70;48.05;;;8.60;99.90;;;;;;7367383;19;20490;-63
2023/04/17 04:02:18;;;;;;;82.07;46.75;;;8.50;99.90;;;;;;7372450;19;20018;-65
2023/04/17 04:04:46;;;;;;;76.30;44.22;;;8.50;99.90;;;;;;7373437;19;20717;-63
2023/04/17 04:07:15;;;;;;;84.40;47.42;;;8.50;99.90;;;;;;7373406;19;20046;-63
2023/04/17 04:09:41;;;;;;;84.10;47.60;;;8.50;99.90;;;;;;7371349;19;20011;-63
2023/04/17 04:12:08;;;;;;;82.00;49.08;;;8.40;99.90;;;;;;7368715;19;20500;-64
2023/04/17 04:14:39;;;;;;;83.65;47.60;;;8.40;99.90;;;;;;7375133;19;20371;-63
2023/04/17 04:17:06;;;;;;;81.65;45.17;;;8.40;99.90;;;;;;7375469;19;20018;-63
2023/04/17 04:19:34;;;;;;;86.32;45.83;;;8.40;99.90;;;;;;7372150;19;20790;-63
2023/04/17 04:22:01;;;;;;;86.32;48.05;;;8.40;99.90;;;;;;7373593;19;20018;-64
2023/04/17 04:24:37;;;;;;;85.18;47.67;;;8.40;99.90;;;;;;7367474;19;20028;-63
2023/04/17 04:27:03;;;;;;;76.35;45.33;;;8.40;99.90;;;;;;7368722;19;20859;-66
2023/04/17 04:29:30;;;;;;;78.10;43.15;;;8.40;99.90;;;;;;7373189;19;20022;-66
2023/04/17 04:32:03;;;;;;;81.57;44.17;;;8.40;99.90;;;;;;7371524;19;20018;-66
2023/04/17 04:34:36;;;;;;;71.45;41.95;;;8.40;99.90;;;;;;7373001;19;20018;-66
2023/04/17 04:37:02;;;;;;;69.45;41.75;;;8.40;99.90;;;;;;7369701;19;20881;-63
2023/04/17 04:39:38;;;;;;;69.20;39.67;;;8.40;99.90;;;;;;7367636;19;20023;-64
2023/04/17 04:42:09;;;;;;;70.45;41.67;;;8.40;99.90;;;;;;7370439;19;20395;-63
2023/04/17 04:44:48;;;;;;;67.63;40.47;;;8.40;99.90;;;;;;7370418;19;20019;-64
2023/04/17 04:47:19;;;;;;;67.53;38.72;;;8.40;99.90;;;;;;7366723;19;20010;-63
2023/04/17 04:49:48;;;;;;;59.72;39.42;;;8.40;99.90;;;;;;7364384;19;20021;-63
2023/04/17 04:52:17;;;;;;;68.72;41.80;;;8.40;99.90;;;;;;7361054;19;20056;-64
2023/04/17 04:54:44;;;;;;;66.78;40.75;;;8.40;99.90;;;;;;7373183;19;20018;-66
2023/04/17 04:57:11;;;;;;;61.78;39.05;;;8.40;99.90;;;;;;7369830;19;20015;-66
2023/04/17 04:59:39;;;;;;;66.78;41.30;;;8.40;99.90;;;;;;7365685;19;20030;-66
2023/04/17 05:02:23;;;;;;;63.92;39.78;;;8.40;99.90;;;;;;7369755;19;20018;-66
2023/04/17 05:04:50;;;;;;;59.00;38.90;;;8.40;99.90;;;;;;7371790;19;20019;-64
2023/04/17 05:07:17;;;;;;;56.80;37.10;;;8.40;99.90;;;;;;7369496;19;20859;-64
2023/04/17 05:09:45;;;;;;;58.35;37.97;;;8.40;99.90;;;;;;7373345;19;20014;-66
2023/04/17 05:12:12;;;;;;;57.10;36.72;;;8.40;99.90;;;;;;7373658;19;20506;-66
2023/04/17 05:14:39;;;;;;;58.42;38.22;;;8.40;99.90;;;;;;7371649;19;20811;-65
2023/04/17 05:17:07;;;;;;;57.95;37.40;;;8.40;99.90;;;;;;7366009;19;20021;-64
2023/04/17 05:19:34;;;;;;;59.67;38.20;;;8.40;99.90;;;;;;7369187;19;20021;-65
2023/04/17 05:22:04;;;;;;;60.38;38.47;;;8.40;99.90;;;;;;7370931;19;20018;-63
2023/04/17 05:24:34;;;;;;;57.83;38.88;;;8.40;99.90;;;;;;7366894;19;20121;-65
2023/04/17 05:27:01;;;;;;;56.28;35.90;;;8.30;99.90;;;;;;7372343;19;21435;-67
2023/04/17 05:29:29;;;;;;;61.30;38.25;;;8.40;99.90;;;;;;7369788;19;20019;-63
2023/04/17 05:31:56;;;;;;;57.45;38.03;;;8.30;99.90;;;;;;7372743;19;20019;-64
2023/04/17 05:34:45;;;;;;;53.55;35.92;;;8.40;99.90;;;;;;7366677;19;20597;-62
2023/04/17 05:37:12;;;;;;;57.25;37.30;;;8.40;99.90;;;;;;7364620;19;20370;-65
2023/04/17 05:39:39;;;;;;;56.70;38.70;;;8.40;99.90;;;;;;7370992;19;20595;-65
2023/04/17 05:42:07;;;;;;;60.08;39.22;;;8.40;99.90;;;;;;7370063;19;20608;-63
2023/04/17 05:44:34;;;;;;;59.35;38.88;;;8.40;99.90;;;;;;7369198;19;20090;-67
2023/04/17 05:47:00;;;;;;;59.95;38.40;;;8.40;99.90;;;;;;7373420;19;20474;-67
2023/04/17 05:49:27;;;;;;;64.88;40.92;;;8.40;99.90;;;;;;7372871;19;20054;-66
2023/04/17 05:51:54;;;;;;;62.80;39.70;;;8.30;99.90;;;;;;7372528;19;20025;-64
2023/04/17 05:54:20;;;;;;;63.97;42.80;;;8.40;99.90;;;;;;7372328;19;20023;-63
2023/04/17 05:56:48;;;;;;;65.80;39.92;;;8.40;99.90;;;;;;7373801;19;20778;-64
2023/04/17 05:59:16;;;;;;;63.22;40.88;;;8.40;99.90;;;;;;7375624;19;20042;-66
2023/04/17 06:01:42;;;;;;;63.50;38.88;;;8.40;99.90;;;;;;7374516;19;20026;-67
2023/04/17 06:04:09;;;;;;;62.13;38.70;;;8.40;99.90;;;;;;7372623;19;20025;-67
2023/04/17 06:06:35;;;;;;;55.83;38.10;;;8.40;99.90;;;;;;7374474;19;20018;-67
2023/04/17 06:09:03;;;;;;;54.95;37.33;;;8.40;99.90;;;;;;7376244;19;20014;-67
2023/04/17 06:11:29;;;;;;;50.05;35.25;;;8.40;99.90;;;;;;7373759;19;20018;-67
2023/04/17 06:13:57;;;;;;;54.03;37.63;;;8.30;99.90;;;;;;7370930;19;20366;-69
2023/04/17 06:16:23;;;;;;;56.00;38.20;;;8.40;99.90;;;;;;7372594;19;20489;-66
2023/04/17 06:18:49;;;;;;;56.60;37.33;;;8.50;99.90;;;;;;7373387;19;20022;-66
2023/04/17 06:21:16;;;;;;;57.55;39.40;;;8.50;99.90;;;;;;7372330;19;20124;-67
2023/04/17 06:23:45;;;;;;;52.03;38.15;;;8.60;99.90;;;;;;7372565;19;20793;-67
2023/04/17 06:26:11;;;;;;;52.97;37.10;;;8.70;99.90;;;;;;7373802;19;20015;-67
2023/04/17 06:28:39;;;;;;;53.45;36.78;;;8.60;99.90;;;;;;7375962;19;20124;-67
2023/04/17 06:31:05;;;;;;;51.28;36.45;;;8.70;99.90;;;;;;7373038;19;20026;-67
2023/04/17 06:33:32;;;;;;;54.15;39.55;;;8.70;99.90;;;;;;7372165;19;20470;-67
2023/04/17 06:35:59;;;;;;;50.03;35.33;;;8.70;99.90;;;;;;7375886;19;20014;-67
2023/04/17 06:38:36;;;;;;;51.35;35.35;;;8.80;99.90;;;;;;7371264;19;20021;-68
2023/04/17 06:41:03;;;;;;;52.75;35.92;;;8.70;99.90;;;;;;7375852;19;21079;-67
2023/04/17 06:43:29;;;;;;;48.63;35.58;;;8.70;99.90;;;;;;7369525;19;20382;-67
2023/04/17 06:45:58;;;;;;;49.08;36.10;;;8.70;99.90;;;;;;7371021;19;20106;-67
2023/04/17 06:48:25;;;;;;;52.72;37.40;;;8.80;99.90;;;;;;7367767;19;20046;-67
2023/04/17 06:50:51;;;;;;;50.10;35.85;;;8.90;99.90;;;;;;7374876;19;20015;-67
2023/04/17 06:53:18;;;;;;;48.75;35.63;;;9.00;99.90;;;;;;7370133;19;20053;-67
2023/04/17 06:55:44;;;;;;;51.45;36.83;;;9.00;99.90;;;;;;7374656;19;20063;-67
2023/04/17 06:58:11;;;;;;;47.80;35.90;;;9.00;99.90;;;;;;7373091;19;20026;-67
2023/04/17 07:00:37;;;;;;;49.88;35.15;;;8.90;99.90;;;;;;7372367;19;20872;-66
2023/04/17 07:03:04;;;;;;;51.80;36.22;;;9.00;99.90;;;;;;7368076;19;20021;-67
2023/04/17 07:05:30;;;;;;;48.92;35.17;;;9.10;99.90;;;;;;7369347;19;20384;-67
2023/04/17 07:07:57;;;;;;;47.72;34.95;;;9.10;99.90;;;;;;7372623;19;20048;-67
2023/04/17 07:10:23;;;;;;;45.05;34.80;;;9.20;99.90;;;;;;7373394;19;20056;-67
2023/04/17 07:12:49;;;;;;;52.15;38.90;;;9.30;99.90;;;;;;7368234;19;20846;-67
2023/04/17 07:15:16;;;;;;;44.53;33.40;;;9.40;99.90;;;;;;7367482;19;20579;-64
2023/04/17 07:17:42;;;;;;;42.75;33.65;;;9.40;99.90;;;;;;7359401;19;20090;-64
2023/04/17 07:20:09;;;;;;;42.90;32.78;;;9.40;99.90;;;;;;7368113;19;20981;-64
2023/04/17 07:22:35;;;;;;;44.58;33.67;;;9.60;99.90;;;;;;7371568;19;20019;-64
2023/04/17 07:25:02;;;;;;;41.53;32.53;;;9.70;99.90;;;;;;7369988;19;20387;-64
2023/04/17 07:27:29;;;;;;;42.78;32.97;;;9.80;99.90;;;;;;7368231;19;20026;-63
2023/04/17 07:29:55;;;;;;;41.50;32.08;;;9.90;99.90;;;;;;7374143;19;20922;-64
2023/04/17 07:32:23;;;;;;;44.15;33.92;;;9.90;99.90;;;;;;7370417;19;20018;-64
2023/04/17 07:34:49;;;;;;;42.65;34.55;;;10.00;99.90;;;;;;7369322;19;20010;-65
2023/04/17 07:37:16;;;;;;;43.00;33.90;;;10.10;99.90;;;;;;7369550;19;20047;-65
2023/04/17 07:39:48;;;;;;;42.13;34.08;;;10.20;99.90;;;;;;7370540;19;20039;-63
2023/04/17 07:42:15;;;;;;;41.55;33.35;;;10.30;99.90;;;;;;7372431;19;20434;-67
2023/04/17 07:44:41;;;;;;;45.25;35.75;;;10.50;99.90;;;;;;7366853;19;20522;-67
2023/04/17 07:47:07;;;;;;;40.83;34.10;;;10.50;99.90;;;;;;7366365;19;20129;-67
2023/04/17 07:49:34;;;;;;;44.85;36.55;;;10.70;99.90;;;;;;7357433;19;20509;-66
2023/04/17 07:52:00;;;;;;;39.50;33.58;;;10.80;99.90;;;;;;7368457;19;20019;-67
2023/04/17 07:54:27;;;;;;;47.40;37.00;;;10.90;99.90;;;;;;7371708;19;20018;-69
2023/04/17 07:57:01;;;;;;;41.13;32.38;;;11.00;99.90;;;;;;7373345;19;20021;-67
2023/04/17 07:59:29;;;;;;;44.00;34.97;;;11.00;99.90;;;;;;7370836;19;20022;-67
2023/04/17 08:01:56;;;;;;;39.08;33.33;;;11.20;99.90;;;;;;7376991;19;20018;-66
2023/04/17 08:04:23;;;;;;;37.85;30.60;;;11.50;99.90;;;;;;7374777;19;20568;-68
2023/04/17 08:06:49;;;;;;;36.75;31.65;;;11.70;99.90;;;;;;7377271;19;20050;-65
2023/04/17 08:09:25;;;;;;;37.20;31.38;;;11.90;99.90;;;;;;7375688;19;20022;-65
2023/04/17 08:11:51;;;;;;;37.58;31.45;;;12.20;99.90;;;;;;7377392;19;20011;-67
2023/04/17 08:14:19;;;;;;;37.90;32.25;;;12.40;99.90;;;;;;7374515;19;20023;-65
2023/04/17 08:16:49;;;;;;;37.78;32.45;;;12.70;99.90;;;;;;7379965;19;20033;-67
2023/04/17 08:19:15;;;;;;;34.20;30.02;;;12.70;99.90;;;;;;7361956;19;20022;-66
2023/04/17 08:21:41;;;;;;;32.22;28.83;;;12.60;99.90;;;;;;7365056;19;20070;-67
2023/04/17 08:24:07;;;;;;;34.28;30.42;;;12.60;99.90;;;;;;7367633;19;20018;-67
2023/04/17 08:26:34;;;;;;;32.47;28.98;;;12.50;99.90;;;;;;7379144;19;20022;-65
2023/04/17 08:29:00;;;;;;;33.05;29.45;;;12.30;99.90;;;;;;7378977;19;20025;-65
2023/04/17 08:31:27;;;;;;;33.75;29.55;;;12.40;99.90;;;;;;7376992;19;20018;-67
2023/04/17 08:33:54;;;;;;;39.13;32.55;;;12.60;99.90;;;;;;7373337;19;20022;-64
2023/04/17 08:36:20;;;;;;;33.38;29.88;;;12.80;99.90;;;;;;7377206;19;20690;-65
2023/04/17 08:38:47;;;;;;;35.40;31.60;;;13.00;99.90;;;;;;7373418;19;20115;-68
2023/04/17 08:41:24;;;;;;;34.00;30.50;;;13.00;99.90;;;;;;7375951;19;20482;-67
2023/04/17 08:43:50;;;;;;;33.97;30.45;;;13.50;99.90;;;;;;7375933;19;20050;-67
2023/04/17 08:46:19;;;;;;;34.53;30.90;;;13.70;99.90;;;;;;7369591;19;20550;-64
2023/04/17 08:48:46;;;;;;;35.10;31.30;;;14.00;99.90;;;;;;7376524;19;20019;-64
2023/04/17 08:51:13;;;;;;;32.58;29.38;;;14.40;99.90;;;;;;7375597;19;20047;-65
2023/04/17 08:53:40;;;;;;;34.13;30.75;;;14.50;99.90;;;;;;7374621;19;20033;-65
2023/04/17 08:56:07;;;;;;;34.65;30.67;;;14.80;99.90;;;;;;7373704;19;20427;-67
2023/04/17 08:58:34;;;;;;;34.92;31.30;;;14.90;99.90;;;;;;7360178;19;20529;-65
2023/04/17 09:01:12;;;;;;;34.50;30.90;;;14.70;99.90;;;;;;7360039;19;20044;-67
2023/04/17 09:03:42;;;;;;;38.47;33.08;;;14.60;99.90;;;;;;7366820;19;20825;-67
2023/04/17 09:06:10;;;;;;;35.13;31.47;;;14.60;99.90;;;;;;7372758;19;20064;-68
2023/04/17 09:08:38;;;;;;;35.63;32.00;;;14.50;99.90;;;;;;7375289;19;20021;-68
2023/04/17 09:11:15;;;;;;;32.30;29.10;;;14.70;99.90;;;;;;7373566;19;20078;-67
2023/04/17 09:13:41;;;;;;;34.75;31.17;;;14.60;99.90;;;;;;7373422;19;20780;-64
2023/04/17 09:16:12;;;;;;;36.78;32.97;;;14.70;99.90;;;;;;7373470;19;20029;-67
2023/04/17 09:18:41;;;;;;;34.42;30.88;;;14.70;99.90;;;;;;7372578;19;20022;-67
2023/04/17 09:21:08;;;;;;;31.23;27.98;;;14.90;99.90;;;;;;7373594;19;20039;-66
2023/04/17 09:23:55;;;;;;;33.65;30.02;;;14.90;99.90;;;;;;7371250;19;20019;-66
2023/04/17 09:26:24;;;;;;;35.08;31.45;;;15.20;99.90;;;;;;7375967;19;20018;-66
2023/04/17 09:29:10;;;;;;;33.00;29.48;;;15.40;99.90;;;;;;7375251;19;20464;-66
2023/04/17 09:31:38;;;;;;;35.30;31.52;;;15.40;99.90;;;;;;7371150;19;20041;-63
2023/04/17 09:34:06;;;;;;;32.30;28.98;;;15.60;99.90;;;;;;7360270;19;20030;-63
2023/04/17 09:36:37;;;;;;;34.63;31.17;;;15.70;99.90;;;;;;7358226;19;20064;-62
2023/04/17 09:39:15;;;;;;;33.20;29.90;;;16.10;99.90;;;;;;7362433;19;20018;-63
2023/04/17 09:41:41;;;;;;;33.47;30.10;;;16.30;99.90;;;;;;7368637;19;20034;-63
2023/04/17 09:44:08;;;;;;;32.83;29.60;;;16.60;99.90;;;;;;7371421;19;20022;-64
2023/04/17 09:46:40;;;;;;;33.28;29.95;;;16.80;99.90;;;;;;7369341;19;20033;-64
2023/04/17 09:49:14;;;;;;;30.15;27.30;;;17.00;99.90;;;;;;7371529;19;20029;-64
2023/04/17 09:51:41;;;;;;;31.75;28.70;;;17.00;99.90;;;;;;7367778;19;20023;-64
2023/04/17 09:54:10;;;;;;;29.05;26.27;;;16.90;99.90;;;;;;7371242;19;20029;-65
2023/04/17 09:56:37;;;;;;;30.08;26.92;;;17.10;99.90;;;;;;7371301;19;20410;-64
2023/04/17 09:59:05;;;;;;;29.42;26.48;;;17.30;99.90;;;;;;7369796;19;20045;-67
2023/04/17 10:01:32;;;;;;;30.83;25.95;;;17.20;99.90;;;;;;7368934;19;20022;-66
2023/04/17 10:04:00;;;;;;;26.58;24.05;;;17.50;99.90;;;;;;7370742;19;20018;-63
2023/04/17 10:06:26;;;;;;;26.83;24.35;;;17.70;99.90;;;;;;7366078;19;20021;-63
2023/04/17 10:08:53;;;;;;;25.77;23.10;;;18.20;99.90;;;;;;7359366;19;20014;-63
2023/04/17 10:11:23;;;;;;;24.38;22.02;;;18.50;99.90;;;;;;7354105;19;20018;-63
2023/04/17 10:14:03;;;;;;;26.90;24.27;;;18.90;99.90;;;;;;7362110;19;20377;-63
2023/04/17 10:16:34;;;;;;;23.10;20.65;;;19.10;99.90;;;;;;7367741;19;20757;-63
2023/04/17 10:19:22;;;;;;;25.90;23.48;;;19.00;99.90;;;;;;7371557;19;20023;-62
2023/04/17 10:22:17;;;;;;;26.85;23.98;;;18.50;99.90;;;;;;7368447;19;20022;-65
2023/04/17 10:24:46;;;;;;;22.63;20.42;;;18.80;99.90;;;;;;7366998;19;20038;-65
2023/04/17 10:27:25;;;;;;;27.00;24.20;;;18.50;99.90;;;;;;7373519;19;20014;-63
2023/04/17 10:29:51;;;;;;;22.85;20.45;;;19.50;99.90;;;;;;7370626;19;20010;-63
2023/04/17 10:32:17;;;;;;;20.50;18.60;;;19.40;99.90;;;;;;7367845;19;20603;-63
2023/04/17 10:34:43;;;;;;;21.52;19.38;;;18.90;99.90;;;;;;7370007;19;20761;-65
2023/04/17 10:37:14;;;;;;;23.15;21.02;;;18.40;99.90;;;;;;7368250;19;20478;-65
2023/04/17 10:39:59;;;;;;;22.67;20.58;;;18.40;99.90;;;;;;7371621;19;20018;-65
2023/04/17 10:42:28;;;;;;;22.95;20.85;;;19.20;99.80;;;;;;7369375;19;20932;-62
2023/04/17 10:44:58;;;;;;;18.77;16.92;;;20.00;99.90;;;;;;7363779;19;20872;-63
2023/04/17 10:47:33;;;;;;;25.90;23.27;;;19.70;93.10;;;;;;7364293;19;20711;-65
2023/04/17 10:50:06;;;;;;;21.83;19.75;;;19.20;90.90;;;;;;7371823;19;20143;-65
2023/04/17 10:52:38;;;;;;;21.20;19.13;;;19.10;98.30;;;;;;7372454;19;20018;-62
2023/04/17 10:55:15;;;;;;;17.98;16.27;;;19.30;97.60;;;;;;7365526;19;20099;-62
2023/04/17 10:57:56;;;;;;;18.52;16.40;;;20.00;84.90;;;;;;7368443;19;20347;-63
2023/04/17 11:00:35;;;;;;;17.20;15.40;;;20.20;80.00;;;;;;7370567;19;20022;-62
2023/04/17 11:03:03;;;;;;;16.23;14.57;;;20.00;77.80;;;;;;7369779;19;20482;-63
2023/04/17 11:05:30;;;;;;;17.35;15.43;;;19.20;90.80;;;;;;7363056;19;20259;-62
2023/04/17 11:07:59;;;;;;;17.25;15.20;;;18.60;86.20;;;;;;7367362;19;20082;-62
2023/04/17 11:10:25;;;;;;;17.13;15.25;;;18.40;93.10;;;;;;7364666;19;20027;-62
2023/04/17 11:12:52;;;;;;;17.73;15.93;;;18.10;98.60;;;;;;7370350;19;20414;-62
2023/04/17 11:15:29;;;;;;;19.67;17.38;;;17.70;99.90;;;;;;7364237;19;20573;-63
2023/04/17 11:17:57;;;;;;;18.25;16.17;;;17.90;99.90;;;;;;7368227;19;20490;-62
2023/04/17 11:20:26;;;;;;;18.15;16.25;;;17.80;99.90;;;;;;7366671;19;20042;-62
2023/04/17 11:22:52;;;;;;;16.42;14.85;;;17.90;99.90;;;;;;7366656;19;20625;-62
2023/04/17 11:25:26;;;;;;;16.83;14.75;;;18.70;99.90;;;;;;7363736;19;20029;-62
2023/04/17 11:27:57;;;;;;;17.20;15.57;;;19.20;94.10;;;;;;7364562;19;20027;-62
2023/04/17 11:30:26;;;;;;;16.17;14.48;;;19.00;90.00;;;;;;7366070;19;20372;-64
2023/04/17 11:32:52;;;;;;;18.58;16.58;;;18.60;87.40;;;;;;7363630;19;20052;-62
2023/04/17 11:35:29;;;;;;;14.93;13.02;;;18.60;83.20;;;;;;7370312;19;20025;-62
2023/04/17 11:38:21;;;;;;;14.38;12.98;;;19.60;74.80;;;;;;7375936;19;20022;-62
2023/04/17 11:40:57;;;;;;;17.65;15.68;;;19.90;71.00;;;;;;7374933;19;20018;-62
2023/04/17 11:43:24;;;;;;;15.00;13.52;;;19.00;71.80;;;;;;7376572;19;20022;-63
2023/04/17 11:45:56;;;;;;;14.82;12.80;;;18.50;72.00;;;;;;7367979;19;20019;-63
2023/04/17 11:48:27;;;;;;;14.55;12.80;;;18.20;73.30;;;;;;7376898;19;20022;-65
2023/04/17 11:50:56;;;;;;;13.57;10.88;;;18.20;70.10;;;;;;7374320;19;20833;-65
2023/04/17 11:53:22;;;;;;;14.15;12.65;;;18.30;71.70;;;;;;7372850;19;20014;-65
2023/04/17 11:56:15;;;;;;;17.52;15.48;;;18.40;70.10;;;;;;7370738;19;20018;-65
2023/04/17 11:58:51;;;;;;;15.88;14.02;;;18.90;69.20;;;;;;7375145;19;20018;-65
2023/04/17 12:01:20;;;;;;;14.32;12.57;;;20.20;66.20;;;;;;7373789;19;20631;-65
2023/04/17 12:03:46;;;;;;;18.33;13.63;;;21.00;68.00;;;;;;7375075;19;20021;-65
2023/04/17 12:06:13;;;;;;;13.70;12.40;;;20.60;67.20;;;;;;7365847;19;20082;-65
2023/04/17 12:08:46;;;;;;;13.73;12.32;;;19.80;67.50;;;;;;7376073;19;20018;-65
2023/04/17 12:11:23;;;;;;;13.40;11.95;;;19.70;67.80;;;;;;7374579;19;20025;-65
2023/04/17 12:13:54;;;;;;;16.88;15.23;;;19.70;68.30;;;;;;7373406;19;20030;-65
2023/04/17 12:16:21;;;;;;;14.70;12.95;;;19.90;67.10;;;;;;7368755;19;20027;-65
2023/04/17 12:18:47;;;;;;;15.85;13.02;;;19.50;67.90;;;;;;7372077;19;21192;-65
2023/04/17 12:21:14;;;;;;;16.92;15.35;;;18.70;68.20;;;;;;7376403;19;20101;-65
2023/04/17 12:23:40;;;;;;;15.85;13.65;;;18.60;71.90;;;;;;7372050;19;20026;-65
2023/04/17 12:26:07;;;;;;;15.40;13.52;;;18.90;75.70;;;;;;7368529;19;20121;-62
2023/04/17 12:28:34;;;;;;;16.08;13.77;;;18.90;73.00;;;;;;7372397;19;20022;-65
2023/04/17 12:31:01;;;;;;;16.27;13.55;;;18.50;74.50;;;;;;7371649;19;20025;-64
2023/04/17 12:33:27;;;;;;;17.05;13.27;;;18.50;79.80;;;;;;7372460;19;20431;-65
2023/04/17 12:35:53;;;;;;;15.93;14.30;;;18.50;82.30;;;;;;7372321;19;20018;-65
2023/04/17 12:38:21;;;;;;;15.38;13.88;;;18.60;80.20;;;;;;7365492;19;20027;-62
2023/04/17 12:40:48;;;;;;;17.33;14.82;;;18.20;77.20;;;;;;7374646;19;20074;-62